sensor_id;sensor_type;location;lat;lon;timestamp;pressure;altitude;pressure_sealevel;temperature;humidity
37206;BME280;23099;42.636;23.198;2022-12-20T00:00:51;93592.72;;;-1.83;86.73
37206;BME280;23099;42.636;23.198;2022-12-20T00:03:18;93597.63;;;-1.87;86.94
37206;BME280;23099;42.636;23.198;2022-12-20T00:05:46;93590.69;;;-1.98;87.84
37206;BME280;23099;42.636;23.198;2022-12-20T00:08:13;93609.13;;;-1.93;87.98
37206;BME280;23099;42.636;23.198;2022-12-20T00:10:42;93607.28;;;-1.92;88.01
37206;BME280;23099;42.636;23.198;2022-12-20T00:13:11;93606.97;;;-1.96;88.44
37206;BME280;23099;42.636;23.198;2022-12-20T00:15:38;93609.13;;;-1.93;88.34
37206;BME280;23099;42.636;23.198;2022-12-20T00:18:04;93609.91;;;-1.92;88.21
37206;BME280;23099;42.636;23.198;2022-12-20T00:20:31;93614.59;;;-1.94;88.47
37206;BME280;23099;42.636;23.198;2022-12-20T00:22:58;93611.66;;;-1.98;88.47
37206;BME280;23099;42.636;23.198;2022-12-20T00:25:25;93618.69;;;-2.03;89.61
37206;BME280;23099;42.636;23.198;2022-12-20T00:27:51;93614.28;;;-1.98;89.53
37206;BME280;23099;42.636;23.198;2022-12-20T00:30:20;93619.53;;;-1.98;89.33
37206;BME280;23099;42.636;23.198;2022-12-20T00:32:46;93609.34;;;-1.94;88.51
37206;BME280;23099;42.636;23.198;2022-12-20T00:35:13;93611.41;;;-1.96;88.67
37206;BME280;23099;42.636;23.198;2022-12-20T00:37:40;93618.81;;;-1.93;88.61
37206;BME280;23099;42.636;23.198;2022-12-20T00:40:07;93609.13;;;-1.93;88.51
37206;BME280;23099;42.636;23.198;2022-12-20T00:42:34;93602.78;;;-1.97;88.39
37206;BME280;23099;42.636;23.198;2022-12-20T00:45:01;93605.16;;;-1.95;88.04
37206;BME280;23099;42.636;23.198;2022-12-20T00:47:29;93609.59;;;-1.96;87.60
37206;BME280;23099;42.636;23.198;2022-12-20T00:49:56;93602.78;;;-1.97;87.83
37206;BME280;23099;42.636;23.198;2022-12-20T00:52:23;93604.34;;;-1.96;88.46
37206;BME280;23099;42.636;23.198;2022-12-20T00:54:49;93613.97;;;-2.01;88.15
37206;BME280;23099;42.636;23.198;2022-12-20T00:57:16;93606.09;;;-2.01;88.16
37206;BME280;23099;42.636;23.198;2022-12-20T00:59:43;93605.81;;;-2.05;88.07
37206;BME280;23099;42.636;23.198;2022-12-20T01:02:10;93601.44;;;-2.21;88.56
37206;BME280;23099;42.636;23.198;2022-12-20T01:04:38;93604.84;;;-2.21;88.48
37206;BME280;23099;42.636;23.198;2022-12-20T01:07:04;93608.72;;;-2.23;88.93
37206;BME280;23099;42.636;23.198;2022-12-20T01:09:31;93609.22;;;-2.26;88.91
37206;BME280;23099;42.636;23.198;2022-12-20T01:11:58;93609.16;;;-2.31;89.26
37206;BME280;23099;42.636;23.198;2022-12-20T01:14:24;93604.97;;;-2.32;89.17
37206;BME280;23099;42.636;23.198;2022-12-20T01:16:51;93602.06;;;-2.31;88.65
37206;BME280;23099;42.636;23.198;2022-12-20T01:19:18;93593.38;;;-2.36;89.00
37206;BME280;23099;42.636;23.198;2022-12-20T01:21:46;93583.84;;;-2.42;89.13
37206;BME280;23099;42.636;23.198;2022-12-20T01:24:14;93583.06;;;-2.43;89.36
37206;BME280;23099;42.636;23.198;2022-12-20T01:26:41;93586.41;;;-2.47;89.61
37206;BME280;23099;42.636;23.198;2022-12-20T01:29:08;93582.94;;;-2.53;89.35
37206;BME280;23099;42.636;23.198;2022-12-20T01:31:35;93577.63;;;-2.58;89.46
37206;BME280;23099;42.636;23.198;2022-12-20T01:34:02;93567.56;;;-2.66;89.64
37206;BME280;23099;42.636;23.198;2022-12-20T01:36:31;93573.69;;;-2.61;89.37
37206;BME280;23099;42.636;23.198;2022-12-20T01:39:01;93559.59;;;-2.76;89.65
37206;BME280;23099;42.636;23.198;2022-12-20T01:41:29;93570.59;;;-2.74;90.03
37206;BME280;23099;42.636;23.198;2022-12-20T01:43:58;93568.84;;;-2.69;89.78
37206;BME280;23099;42.636;23.198;2022-12-20T01:46:27;93570.53;;;-2.79;90.26
37206;BME280;23099;42.636;23.198;2022-12-20T01:48:58;93559.28;;;-2.80;90.03
37206;BME280;23099;42.636;23.198;2022-12-20T01:51:28;93566.75;;;-2.89;90.48
37206;BME280;23099;42.636;23.198;2022-12-20T01:54:02;93555.94;;;-2.92;90.75
37206;BME280;23099;42.636;23.198;2022-12-20T01:56:30;93562.03;;;-2.87;90.50
37206;BME280;23099;42.636;23.198;2022-12-20T01:58:57;93570.44;;;-2.85;90.03
37206;BME280;23099;42.636;23.198;2022-12-20T02:01:26;93563.84;;;-2.87;90.09
37206;BME280;23099;42.636;23.198;2022-12-20T02:03:53;93554.50;;;-2.83;89.65
37206;BME280;23099;42.636;23.198;2022-12-20T02:06:22;93555.31;;;-2.82;90.09
37206;BME280;23099;42.636;23.198;2022-12-20T02:08:51;93557.13;;;-2.83;89.73
37206;BME280;23099;42.636;23.198;2022-12-20T02:11:43;93565.06;;;-2.78;90.01
37206;BME280;23099;42.636;23.198;2022-12-20T02:14:18;93558.00;;;-2.77;90.04
37206;BME280;23099;42.636;23.198;2022-12-20T02:16:56;93558.56;;;-2.75;89.68
37206;BME280;23099;42.636;23.198;2022-12-20T02:22:29;93553.78;;;-2.78;89.56
37206;BME280;23099;42.636;23.198;2022-12-20T02:25:15;93556.88;;;-2.81;89.74
37206;BME280;23099;42.636;23.198;2022-12-20T02:27:58;93546.25;;;-2.75;89.46
37206;BME280;23099;42.636;23.198;2022-12-20T02:30:31;93550.53;;;-2.69;89.46
37206;BME280;23099;42.636;23.198;2022-12-20T02:33:02;93556.22;;;-2.72;88.91
37206;BME280;23099;42.636;23.198;2022-12-20T02:35:31;93558.94;;;-2.67;88.99
37206;BME280;23099;42.636;23.198;2022-12-20T02:38:00;93553.94;;;-2.68;88.70
37206;BME280;23099;42.636;23.198;2022-12-20T02:40:29;93551.31;;;-2.68;88.67
37206;BME280;23099;42.636;23.198;2022-12-20T02:43:01;93553.84;;;-2.73;88.59
37206;BME280;23099;42.636;23.198;2022-12-20T02:45:32;93553.84;;;-2.73;88.07
37206;BME280;23099;42.636;23.198;2022-12-20T02:48:03;93535.28;;;-2.72;88.36
37206;BME280;23099;42.636;23.198;2022-12-20T02:50:34;93540.16;;;-2.80;87.87
37206;BME280;23099;42.636;23.198;2022-12-20T02:53:02;93540.41;;;-2.82;88.10
37206;BME280;23099;42.636;23.198;2022-12-20T02:55:36;93537.97;;;-2.89;88.16
37206;BME280;23099;42.636;23.198;2022-12-20T02:58:09;93534.00;;;-2.91;88.33
37206;BME280;23099;42.636;23.198;2022-12-20T03:00:41;93535.50;;;-2.95;88.09
37206;BME280;23099;42.636;23.198;2022-12-20T03:03:11;93526.31;;;-2.98;87.98
37206;BME280;23099;42.636;23.198;2022-12-20T03:05:52;93522.53;;;-3.07;87.94
37206;BME280;23099;42.636;23.198;2022-12-20T03:08:20;93528.78;;;-3.08;88.05
37206;BME280;23099;42.636;23.198;2022-12-20T03:10:47;93523.00;;;-3.10;88.08
37206;BME280;23099;42.636;23.198;2022-12-20T03:13:13;93517.91;;;-3.16;88.13
37206;BME280;23099;42.636;23.198;2022-12-20T03:15:41;93530.94;;;-3.22;88.57
37206;BME280;23099;42.636;23.198;2022-12-20T03:18:08;93517.06;;;-3.22;88.74
37206;BME280;23099;42.636;23.198;2022-12-20T03:20:35;93526.88;;;-3.29;88.48
37206;BME280;23099;42.636;23.198;2022-12-20T03:23:02;93534.09;;;-3.36;89.09
37206;BME280;23099;42.636;23.198;2022-12-20T03:25:29;93529.72;;;-3.31;88.93
37206;BME280;23099;42.636;23.198;2022-12-20T03:27:55;93526.88;;;-3.29;88.90
37206;BME280;23099;42.636;23.198;2022-12-20T03:30:22;93527.59;;;-3.34;89.30
37206;BME280;23099;42.636;23.198;2022-12-20T03:32:50;93534.81;;;-3.24;88.92
37206;BME280;23099;42.636;23.198;2022-12-20T03:35:17;93530.75;;;-3.32;88.54
37206;BME280;23099;42.636;23.198;2022-12-20T03:37:43;93533.31;;;-3.37;88.75
37206;BME280;23099;42.636;23.198;2022-12-20T03:40:11;93535.13;;;-3.37;88.93
37206;BME280;23099;42.636;23.198;2022-12-20T03:42:38;93534.47;;;-3.28;88.53
37206;BME280;23099;42.636;23.198;2022-12-20T03:45:06;93531.00;;;-3.33;88.29
37206;BME280;23099;42.636;23.198;2022-12-20T03:47:33;93533.75;;;-3.40;88.34
37206;BME280;23099;42.636;23.198;2022-12-20T03:50:01;93525.31;;;-3.47;88.53
37206;BME280;23099;42.636;23.198;2022-12-20T03:52:27;93527.41;;;-3.44;88.65
37206;BME280;23099;42.636;23.198;2022-12-20T03:54:54;93526.84;;;-3.46;88.62
37206;BME280;23099;42.636;23.198;2022-12-20T03:57:21;93531.00;;;-3.50;88.70
37206;BME280;23099;42.636;23.198;2022-12-20T03:59:47;93526.38;;;-3.60;88.76
37206;BME280;23099;42.636;23.198;2022-12-20T04:02:14;93523.69;;;-3.65;88.65
37206;BME280;23099;42.636;23.198;2022-12-20T04:04:41;93538.59;;;-3.65;88.79
37206;BME280;23099;42.636;23.198;2022-12-20T04:07:09;93530.81;;;-3.60;88.54
37206;BME280;23099;42.636;23.198;2022-12-20T04:09:36;93525.53;;;-3.65;88.18
37206;BME280;23099;42.636;23.198;2022-12-20T04:12:03;93532.13;;;-3.74;88.23
37206;BME280;23099;42.636;23.198;2022-12-20T04:14:30;93523.19;;;-3.78;88.38
37206;BME280;23099;42.636;23.198;2022-12-20T04:16:56;93532.28;;;-3.81;88.81
37206;BME280;23099;42.636;23.198;2022-12-20T04:19:23;93527.88;;;-3.80;88.62
37206;BME280;23099;42.636;23.198;2022-12-20T04:21:50;93524.78;;;-3.77;88.33
37206;BME280;23099;42.636;23.198;2022-12-20T04:24:18;93519.34;;;-3.76;88.42
37206;BME280;23099;42.636;23.198;2022-12-20T04:26:45;93514.13;;;-3.76;88.42
37206;BME280;23099;42.636;23.198;2022-12-20T04:29:11;93507.75;;;-3.80;87.86
37206;BME280;23099;42.636;23.198;2022-12-20T04:31:38;93522.06;;;-3.82;87.87
37206;BME280;23099;42.636;23.198;2022-12-20T04:34:05;93507.25;;;-3.94;87.97
37206;BME280;23099;42.636;23.198;2022-12-20T04:36:31;93519.19;;;-3.98;88.58
37206;BME280;23099;42.636;23.198;2022-12-20T04:38:58;93509.59;;;-4.09;88.31
37206;BME280;23099;42.636;23.198;2022-12-20T04:41:26;93505.31;;;-4.15;88.35
37206;BME280;23099;42.636;23.198;2022-12-20T04:43:55;93508.13;;;-4.16;88.80
37206;BME280;23099;42.636;23.198;2022-12-20T04:46:23;93505.00;;;-4.18;88.39
37206;BME280;23099;42.636;23.198;2022-12-20T04:48:50;93512.66;;;-4.12;88.75
37206;BME280;23099;42.636;23.198;2022-12-20T04:51:17;93503.25;;;-4.13;89.17
37206;BME280;23099;42.636;23.198;2022-12-20T04:53:44;93503.41;;;-4.19;89.04
37206;BME280;23099;42.636;23.198;2022-12-20T04:56:16;93507.28;;;-4.22;88.74
37206;BME280;23099;42.636;23.198;2022-12-20T04:58:47;93506.03;;;-4.19;88.75
37206;BME280;23099;42.636;23.198;2022-12-20T05:01:14;93503.31;;;-4.24;88.77
37206;BME280;23099;42.636;23.198;2022-12-20T05:03:41;93503.53;;;-4.26;89.02
37206;BME280;23099;42.636;23.198;2022-12-20T05:06:09;93484.88;;;-4.46;89.07
37206;BME280;23099;42.636;23.198;2022-12-20T05:08:36;93508.41;;;-4.30;89.66
37206;BME280;23099;42.636;23.198;2022-12-20T05:11:03;93501.03;;;-4.33;89.46
37206;BME280;23099;42.636;23.198;2022-12-20T05:13:30;93510.28;;;-4.42;89.38
37206;BME280;23099;42.636;23.198;2022-12-20T05:15:58;93493.25;;;-4.44;89.52
37206;BME280;23099;42.636;23.198;2022-12-20T05:18:26;93507.84;;;-4.32;89.65
37206;BME280;23099;42.636;23.198;2022-12-20T05:20:56;93507.31;;;-4.34;89.92
37206;BME280;23099;42.636;23.198;2022-12-20T05:23:40;93508.66;;;-4.31;89.53
37206;BME280;23099;42.636;23.198;2022-12-20T05:26:25;93513.75;;;-4.24;89.64
37206;BME280;23099;42.636;23.198;2022-12-20T05:28:52;93506.47;;;-4.22;89.91
37206;BME280;23099;42.636;23.198;2022-12-20T05:31:20;93509.66;;;-4.20;89.54
37206;BME280;23099;42.636;23.198;2022-12-20T05:33:47;93509.44;;;-4.31;89.04
37206;BME280;23099;42.636;23.198;2022-12-20T05:36:13;93520.44;;;-4.29;89.17
37206;BME280;23099;42.636;23.198;2022-12-20T05:38:40;93510.72;;;-4.33;89.84
37206;BME280;23099;42.636;23.198;2022-12-20T05:41:07;93519.19;;;-4.26;89.69
37206;BME280;23099;42.636;23.198;2022-12-20T05:43:34;93523.97;;;-4.23;89.29
37206;BME280;23099;42.636;23.198;2022-12-20T05:46:00;93515.00;;;-4.27;89.01
37206;BME280;23099;42.636;23.198;2022-12-20T05:48:28;93515.44;;;-4.30;88.53
37206;BME280;23099;42.636;23.198;2022-12-20T05:50:55;93520.03;;;-4.37;88.78
37206;BME280;23099;42.636;23.198;2022-12-20T05:53:22;93531.13;;;-4.30;89.20
37206;BME280;23099;42.636;23.198;2022-12-20T05:55:51;93517.84;;;-4.29;89.18
37206;BME280;23099;42.636;23.198;2022-12-20T05:58:18;93527.63;;;-4.36;89.09
37206;BME280;23099;42.636;23.198;2022-12-20T06:00:45;93526.28;;;-4.38;89.42
37206;BME280;23099;42.636;23.198;2022-12-20T06:03:13;93532.28;;;-4.38;90.06
37206;BME280;23099;42.636;23.198;2022-12-20T06:05:43;93516.47;;;-4.31;89.83
37206;BME280;23099;42.636;23.198;2022-12-20T06:08:11;93516.84;;;-4.39;89.41
37206;BME280;23099;42.636;23.198;2022-12-20T06:10:39;93525.47;;;-4.39;89.60
37206;BME280;23099;42.636;23.198;2022-12-20T06:13:06;93524.22;;;-4.36;89.80
37206;BME280;23099;42.636;23.198;2022-12-20T06:15:33;93518.84;;;-4.30;89.71
37206;BME280;23099;42.636;23.198;2022-12-20T06:18:00;93521.16;;;-4.33;89.41
37206;BME280;23099;42.636;23.198;2022-12-20T06:20:28;93517.75;;;-4.34;89.33
37206;BME280;23099;42.636;23.198;2022-12-20T06:22:57;93512.19;;;-4.37;89.55
37206;BME280;23099;42.636;23.198;2022-12-20T06:25:23;93518.22;;;-4.37;89.81
37206;BME280;23099;42.636;23.198;2022-12-20T06:27:50;93524.50;;;-4.49;89.89
37206;BME280;23099;42.636;23.198;2022-12-20T06:30:17;93523.56;;;-4.43;89.92
37206;BME280;23099;42.636;23.198;2022-12-20T06:32:44;93523.88;;;-4.40;90.04
37206;BME280;23099;42.636;23.198;2022-12-20T06:35:11;93519.31;;;-4.33;89.79
37206;BME280;23099;42.636;23.198;2022-12-20T06:37:38;93515.94;;;-4.33;89.43
37206;BME280;23099;42.636;23.198;2022-12-20T06:40:08;93508.75;;;-4.26;89.04
37206;BME280;23099;42.636;23.198;2022-12-20T06:42:35;93508.75;;;-4.26;89.13
37206;BME280;23099;42.636;23.198;2022-12-20T06:45:02;93506.94;;;-4.25;89.83
37206;BME280;23099;42.636;23.198;2022-12-20T06:47:29;93501.16;;;-4.28;89.86
37206;BME280;23099;42.636;23.198;2022-12-20T06:49:56;93513.19;;;-4.27;89.48
37206;BME280;23099;42.636;23.198;2022-12-20T06:52:23;93492.97;;;-4.19;89.53
37206;BME280;23099;42.636;23.198;2022-12-20T06:54:49;93503.16;;;-4.18;89.02
37206;BME280;23099;42.636;23.198;2022-12-20T06:57:17;93497.47;;;-4.15;89.08
37206;BME280;23099;42.636;23.198;2022-12-20T06:59:44;93497.63;;;-4.21;88.60
37206;BME280;23099;42.636;23.198;2022-12-20T07:02:11;93496.09;;;-4.17;89.38
37206;BME280;23099;42.636;23.198;2022-12-20T07:04:38;93481.50;;;-4.18;90.00
37206;BME280;23099;42.636;23.198;2022-12-20T07:07:05;93486.34;;;-4.10;90.24
37206;BME280;23099;42.636;23.198;2022-12-20T07:09:32;93465.28;;;-4.20;90.12
37206;BME280;23099;42.636;23.198;2022-12-20T07:11:59;93490.88;;;-4.06;90.76
37206;BME280;23099;42.636;23.198;2022-12-20T07:14:27;93489.78;;;-3.93;89.96
37206;BME280;23099;42.636;23.198;2022-12-20T07:16:53;93493.47;;;-3.89;89.99
37206;BME280;23099;42.636;23.198;2022-12-20T07:19:20;93486.16;;;-3.75;89.92
37206;BME280;23099;42.636;23.198;2022-12-20T07:21:47;93492.66;;;-3.78;89.41
37206;BME280;23099;42.636;23.198;2022-12-20T07:24:14;93485.50;;;-3.82;89.07
37206;BME280;23099;42.636;23.198;2022-12-20T07:26:42;93494.16;;;-3.82;89.09
37206;BME280;23099;42.636;23.198;2022-12-20T07:29:09;93493.13;;;-3.81;88.81
37206;BME280;23099;42.636;23.198;2022-12-20T07:31:37;93492.72;;;-3.73;88.58
37206;BME280;23099;42.636;23.198;2022-12-20T07:34:04;93497.34;;;-3.63;88.52
37206;BME280;23099;42.636;23.198;2022-12-20T07:36:30;93490.22;;;-3.51;87.60
37206;BME280;23099;42.636;23.198;2022-12-20T07:38:57;93495.34;;;-3.39;87.17
37206;BME280;23099;42.636;23.198;2022-12-20T07:41:24;93498.69;;;-3.27;87.13
37206;BME280;23099;42.636;23.198;2022-12-20T07:43:50;93485.28;;;-3.14;86.01
37206;BME280;23099;42.636;23.198;2022-12-20T07:46:17;93491.13;;;-3.07;85.11
37206;BME280;23099;42.636;23.198;2022-12-20T07:48:46;93481.03;;;-2.98;84.43
37206;BME280;23099;42.636;23.198;2022-12-20T07:51:15;93484.22;;;-2.96;84.66
37206;BME280;23099;42.636;23.198;2022-12-20T07:53:46;93474.44;;;-2.84;84.67
37206;BME280;23099;42.636;23.198;2022-12-20T07:56:14;93476.69;;;-2.71;84.07
37206;BME280;23099;42.636;23.198;2022-12-20T07:58:42;93472.69;;;-2.57;83.99
37206;BME280;23099;42.636;23.198;2022-12-20T08:01:10;93479.97;;;-2.59;83.32
37206;BME280;23099;42.636;23.198;2022-12-20T08:03:41;93483.88;;;-2.39;83.35
37206;BME280;23099;42.636;23.198;2022-12-20T08:06:11;93473.25;;;-2.33;82.59
37206;BME280;23099;42.636;23.198;2022-12-20T08:08:43;93476.50;;;-2.21;82.44
37206;BME280;23099;42.636;23.198;2022-12-20T08:11:12;93472.97;;;-2.09;80.93
37206;BME280;23099;42.636;23.198;2022-12-20T08:13:39;93443.66;;;-2.06;80.61
37206;BME280;23099;42.636;23.198;2022-12-20T08:16:06;93467.91;;;-1.62;80.44
37206;BME280;23099;42.636;23.198;2022-12-20T08:18:33;93468.84;;;-1.42;79.40
37206;BME280;23099;42.636;23.198;2022-12-20T08:21:00;93466.56;;;-1.33;78.20
37206;BME280;23099;42.636;23.198;2022-12-20T08:23:28;93471.69;;;-1.11;77.57
37206;BME280;23099;42.636;23.198;2022-12-20T08:25:54;93463.63;;;-0.99;75.31
37206;BME280;23099;42.636;23.198;2022-12-20T08:28:22;93459.22;;;-0.94;75.74
37206;BME280;23099;42.636;23.198;2022-12-20T08:30:49;93464.19;;;-0.97;75.88
37206;BME280;23099;42.636;23.198;2022-12-20T08:33:16;93462.13;;;-0.90;74.63
37206;BME280;23099;42.636;23.198;2022-12-20T08:35:42;93454.03;;;-0.84;73.84
37206;BME280;23099;42.636;23.198;2022-12-20T08:38:09;93452.56;;;-0.64;73.57
37206;BME280;23099;42.636;23.198;2022-12-20T08:40:37;93454.19;;;-0.43;73.38
37206;BME280;23099;42.636;23.198;2022-12-20T08:43:04;93451.09;;;-0.35;71.60
37206;BME280;23099;42.636;23.198;2022-12-20T08:45:30;93453.50;;;-0.23;70.35
37206;BME280;23099;42.636;23.198;2022-12-20T08:47:57;93450.66;;;-0.07;70.55
37206;BME280;23099;42.636;23.198;2022-12-20T08:50:24;93450.72;;;0.14;68.63
37206;BME280;23099;42.636;23.198;2022-12-20T08:52:51;93458.09;;;0.37;67.88
37206;BME280;23099;42.636;23.198;2022-12-20T08:55:18;93459.44;;;0.50;68.24
37206;BME280;23099;42.636;23.198;2022-12-20T08:57:46;93454.44;;;0.68;67.05
37206;BME280;23099;42.636;23.198;2022-12-20T09:00:13;93450.19;;;0.73;67.10
37206;BME280;23099;42.636;23.198;2022-12-20T09:02:40;93458.63;;;0.90;65.45
37206;BME280;23099;42.636;23.198;2022-12-20T09:05:07;93457.56;;;1.11;63.63
37206;BME280;23099;42.636;23.198;2022-12-20T09:07:34;93452.78;;;1.23;62.15
37206;BME280;23099;42.636;23.198;2022-12-20T09:10:01;93442.75;;;1.30;63.16
37206;BME280;23099;42.636;23.198;2022-12-20T09:12:28;93432.63;;;1.63;63.45
37206;BME280;23099;42.636;23.198;2022-12-20T09:14:56;93441.00;;;1.85;61.55
37206;BME280;23099;42.636;23.198;2022-12-20T09:17:23;93435.91;;;1.99;59.63
37206;BME280;23099;42.636;23.198;2022-12-20T09:19:49;93424.25;;;2.05;59.58
37206;BME280;23099;42.636;23.198;2022-12-20T09:22:16;93423.53;;;1.94;58.67
37206;BME280;23099;42.636;23.198;2022-12-20T09:24:42;93418.66;;;1.72;59.34
37206;BME280;23099;42.636;23.198;2022-12-20T09:27:09;93419.44;;;1.73;59.87
37206;BME280;23099;42.636;23.198;2022-12-20T09:29:36;93413.84;;;1.80;59.82
37206;BME280;23099;42.636;23.198;2022-12-20T09:32:04;93418.31;;;1.84;59.19
37206;BME280;23099;42.636;23.198;2022-12-20T09:34:31;93409.34;;;1.85;58.76
37206;BME280;23099;42.636;23.198;2022-12-20T09:36:57;93413.00;;;1.94;60.32
37206;BME280;23099;42.636;23.198;2022-12-20T09:39:24;93403.94;;;2.10;60.10
37206;BME280;23099;42.636;23.198;2022-12-20T09:41:51;93397.28;;;2.18;58.19
37206;BME280;23099;42.636;23.198;2022-12-20T09:44:23;93399.03;;;2.33;58.73
37206;BME280;23099;42.636;23.198;2022-12-20T09:46:53;93396.34;;;2.43;57.97
37206;BME280;23099;42.636;23.198;2022-12-20T09:49:26;93393.13;;;2.46;57.46
37206;BME280;23099;42.636;23.198;2022-12-20T09:52:15;93388.09;;;2.49;57.44
37206;BME280;23099;42.636;23.198;2022-12-20T09:54:55;93373.38;;;2.43;57.11
37206;BME280;23099;42.636;23.198;2022-12-20T09:57:31;93374.25;;;2.63;56.62
37206;BME280;23099;42.636;23.198;2022-12-20T10:00:10;93374.38;;;2.76;56.09
37206;BME280;23099;42.636;23.198;2022-12-20T10:02:37;93366.56;;;2.95;55.88
37206;BME280;23099;42.636;23.198;2022-12-20T10:05:12;93357.69;;;3.10;55.51
37206;BME280;23099;42.636;23.198;2022-12-20T10:07:47;93358.16;;;3.17;54.56
37206;BME280;23099;42.636;23.198;2022-12-20T10:10:25;93355.00;;;3.15;55.83
37206;BME280;23099;42.636;23.198;2022-12-20T10:13:05;93344.88;;;3.22;54.02
37206;BME280;23099;42.636;23.198;2022-12-20T10:15:43;93340.44;;;3.41;54.54
37206;BME280;23099;42.636;23.198;2022-12-20T10:18:24;93335.16;;;3.41;53.94
37206;BME280;23099;42.636;23.198;2022-12-20T10:20:57;93325.81;;;3.25;54.12
37206;BME280;23099;42.636;23.198;2022-12-20T10:23:31;93312.16;;;3.42;54.49
37206;BME280;23099;42.636;23.198;2022-12-20T10:25:59;93311.91;;;2.96;55.16
37206;BME280;23099;42.636;23.198;2022-12-20T10:28:28;93295.22;;;3.00;55.51
37206;BME280;23099;42.636;23.198;2022-12-20T10:30:58;93277.47;;;2.82;57.52
37206;BME280;23099;42.636;23.198;2022-12-20T10:33:27;93300.69;;;3.04;53.91
37206;BME280;23099;42.636;23.198;2022-12-20T10:36:16;93294.34;;;3.05;56.17
37206;BME280;23099;42.636;23.198;2022-12-20T10:38:45;93298.66;;;3.01;55.19
37206;BME280;23099;42.636;23.198;2022-12-20T10:41:15;93292.16;;;3.12;54.90
37206;BME280;23099;42.636;23.198;2022-12-20T10:43:44;93289.25;;;3.13;54.87
37206;BME280;23099;42.636;23.198;2022-12-20T10:46:13;93285.91;;;3.27;54.35
37206;BME280;23099;42.636;23.198;2022-12-20T10:48:42;93275.00;;;3.52;53.93
37206;BME280;23099;42.636;23.198;2022-12-20T10:51:15;93273.44;;;3.70;54.28
37206;BME280;23099;42.636;23.198;2022-12-20T10:53:52;93262.19;;;3.97;53.16
37206;BME280;23099;42.636;23.198;2022-12-20T10:56:21;93269.41;;;3.91;52.84
37206;BME280;23099;42.636;23.198;2022-12-20T10:58:54;93265.63;;;3.97;52.87
37206;BME280;23099;42.636;23.198;2022-12-20T11:01:24;93256.25;;;4.37;52.45
37206;BME280;23099;42.636;23.198;2022-12-20T11:03:57;93253.84;;;4.68;51.02
37206;BME280;23099;42.636;23.198;2022-12-20T11:06:28;93255.06;;;5.03;49.75
37206;BME280;23099;42.636;23.198;2022-12-20T11:09:23;93253.28;;;5.12;49.08
37206;BME280;23099;42.636;23.198;2022-12-20T11:12:02;93253.28;;;5.12;48.93
37206;BME280;23099;42.636;23.198;2022-12-20T11:14:29;93252.09;;;4.91;48.55
37206;BME280;23099;42.636;23.198;2022-12-20T11:16:57;93252.19;;;5.27;49.91
37206;BME280;23099;42.636;23.198;2022-12-20T11:19:35;93241.34;;;5.37;49.50
37206;BME280;23099;42.636;23.198;2022-12-20T11:22:16;93241.38;;;5.73;47.81
37206;BME280;23099;42.636;23.198;2022-12-20T11:24:52;93234.25;;;6.18;46.90
37206;BME280;23099;42.636;23.198;2022-12-20T11:27:28;93229.59;;;6.46;45.68
37206;BME280;23099;42.636;23.198;2022-12-20T11:30:16;93232.44;;;6.27;44.70
37206;BME280;23099;42.636;23.198;2022-12-20T11:33:01;93223.13;;;6.38;45.66
37206;BME280;23099;42.636;23.198;2022-12-20T11:35:38;93218.50;;;6.22;45.51
37206;BME280;23099;42.636;23.198;2022-12-20T11:38:13;93215.44;;;6.06;45.35
37206;BME280;23099;42.636;23.198;2022-12-20T11:40:48;93216.84;;;5.67;46.75
37206;BME280;23099;42.636;23.198;2022-12-20T11:43:30;93211.28;;;5.78;45.84
37206;BME280;23099;42.636;23.198;2022-12-20T11:46:15;93205.78;;;5.16;47.41
37206;BME280;23099;42.636;23.198;2022-12-20T11:49:11;93207.06;;;4.63;48.14
37206;BME280;23099;42.636;23.198;2022-12-20T11:51:44;93202.47;;;4.69;49.13
37206;BME280;23099;42.636;23.198;2022-12-20T11:54:16;93206.19;;;4.54;49.88
37206;BME280;23099;42.636;23.198;2022-12-20T11:56:47;93205.97;;;4.51;50.04
37206;BME280;23099;42.636;23.198;2022-12-20T11:59:19;93210.19;;;4.52;49.54
37206;BME280;23099;42.636;23.198;2022-12-20T12:01:50;93204.59;;;4.94;49.04
37206;BME280;23099;42.636;23.198;2022-12-20T12:04:21;93210.25;;;5.29;48.29
37206;BME280;23099;42.636;23.198;2022-12-20T12:06:53;93205.72;;;5.43;47.47
37206;BME280;23099;42.636;23.198;2022-12-20T12:09:27;93201.53;;;5.28;47.79
37206;BME280;23099;42.636;23.198;2022-12-20T12:12:01;93196.25;;;5.15;47.91
37206;BME280;23099;42.636;23.198;2022-12-20T12:14:36;93189.97;;;5.11;47.01
37206;BME280;23099;42.636;23.198;2022-12-20T12:17:08;93191.06;;;5.10;47.58
37206;BME280;23099;42.636;23.198;2022-12-20T12:19:42;93194.31;;;4.79;48.49
37206;BME280;23099;42.636;23.198;2022-12-20T12:22:15;93191.00;;;4.46;48.86
37206;BME280;23099;42.636;23.198;2022-12-20T12:24:47;93191.84;;;4.28;50.05
37206;BME280;23099;42.636;23.198;2022-12-20T12:27:21;93192.72;;;4.37;49.67
37206;BME280;23099;42.636;23.198;2022-12-20T12:29:49;93192.50;;;4.34;50.13
37206;BME280;23099;42.636;23.198;2022-12-20T12:32:23;93191.44;;;4.35;50.00
37206;BME280;23099;42.636;23.198;2022-12-20T12:35:03;93186.38;;;4.06;49.85
37206;BME280;23099;42.636;23.198;2022-12-20T12:37:53;93183.81;;;3.87;51.37
37206;BME280;23099;42.636;23.198;2022-12-20T12:40:43;93178.19;;;3.75;51.94
37206;BME280;23099;42.636;23.198;2022-12-20T12:46:17;93186.59;;;3.44;52.34
37206;BME280;23099;42.636;23.198;2022-12-20T12:48:49;93189.13;;;3.49;51.87
37206;BME280;23099;42.636;23.198;2022-12-20T12:51:23;93183.78;;;3.54;51.86
37206;BME280;23099;42.636;23.198;2022-12-20T12:53:52;93185.09;;;3.38;52.02
37206;BME280;23099;42.636;23.198;2022-12-20T12:56:36;93169.38;;;3.28;52.02
37206;BME280;23099;42.636;23.198;2022-12-20T12:59:18;93177.88;;;3.25;51.80
37206;BME280;23099;42.636;23.198;2022-12-20T13:01:49;93175.50;;;3.05;53.73
37206;BME280;23099;42.636;23.198;2022-12-20T13:04:25;93173.53;;;3.15;52.44
37206;BME280;23099;42.636;23.198;2022-12-20T13:07:03;93175.56;;;3.18;52.00
37206;BME280;23099;42.636;23.198;2022-12-20T13:09:49;93159.09;;;3.27;52.37
37206;BME280;23099;42.636;23.198;2022-12-20T13:12:56;93166.78;;;3.04;51.83